Time;durP1;ratioP1;P1;durP2;ratioP2;P2;SDS_P1;SDS_P2;PMS_P1;PMS_P2;Temp;Humidity;BMP_temperature;BMP_pressure;BME280_temperature;BME280_humidity;BME280_pressure;Samples;Min_cycle;Max_cycle;Signal;HPM_P1;HPM_P2
2022/08/07 00:01:01;;;;;;;10.20;5.30;;;;;;;;;;5080058;28;20493;-69
2022/08/07 00:03:28;;;;;;;7.43;5.25;;;;;;;;;;5101893;28;20048;-68
2022/08/07 00:05:54;;;;;;;7.30;4.85;;;;;;;;;;5084554;28;20040;-68
2022/08/07 00:08:21;;;;;;;8.85;6.00;;;;;;;;;;5089691;28;20115;-68
2022/08/07 00:10:50;;;;;;;10.07;5.13;;;;;;;;;;5089278;28;20036;-68
2022/08/07 00:13:17;;;;;;;9.82;5.32;;;;;;;;;;5070537;28;20063;-68
2022/08/07 00:15:44;;;;;;;12.43;5.57;;;;;;;;;;5087193;28;20101;-68
2022/08/07 00:18:10;;;;;;;7.28;5.00;;;;;;;;;;5089347;28;20035;-68
2022/08/07 00:20:37;;;;;;;7.65;5.80;;;;;;;;;;5103568;28;20040;-68
2022/08/07 00:23:07;;;;;;;8.70;5.97;;;;;;;;;;5088335;28;20131;-68
2022/08/07 00:25:33;;;;;;;8.82;5.60;;;;;;;;;;5089163;28;20044;-68
2022/08/07 00:27:59;;;;;;;10.30;5.40;;;;;;;;;;5083035;28;20040;-68
2022/08/07 00:30:25;;;;;;;9.02;5.45;;;;;;;;;;5104960;28;20455;-68
2022/08/07 00:32:51;;;;;;;8.77;4.82;;;;;;;;;;5104656;28;20044;-68
2022/08/07 00:35:18;;;;;;;7.43;5.10;;;;;;;;;;5086563;28;20043;-68
2022/08/07 00:37:44;;;;;;;8.65;6.25;;;;;;;;;;5101977;28;20451;-68
2022/08/07 00:40:13;;;;;;;9.77;5.60;;;;;;;;;;5078329;28;20517;-68
2022/08/07 00:42:40;;;;;;;11.02;5.85;;;;;;;;;;5088884;28;20078;-68
2022/08/07 00:45:07;;;;;;;7.10;4.97;;;;;;;;;;5088779;28;20036;-68
2022/08/07 00:47:34;;;;;;;8.88;5.43;;;;;;;;;;5092153;28;20065;-68
2022/08/07 00:50:00;;;;;;;10.20;5.88;;;;;;;;;;5086911;28;20509;-68
2022/08/07 00:52:26;;;;;;;8.68;5.70;;;;;;;;;;5094712;28;20040;-68
2022/08/07 00:54:53;;;;;;;7.50;5.13;;;;;;;;;;5085664;28;20060;-68
2022/08/07 00:57:19;;;;;;;10.88;5.90;;;;;;;;;;5089128;28;20040;-68
2022/08/07 00:59:45;;;;;;;9.15;6.10;;;;;;;;;;5070716;28;20528;-68
2022/08/07 01:02:11;;;;;;;8.73;5.95;;;;;;;;;;5085675;28;20479;-68
2022/08/07 01:04:38;;;;;;;8.00;5.45;;;;;;;;;;5085218;28;20047;-68
2022/08/07 01:07:05;;;;;;;9.35;5.70;;;;;;;;;;5085886;28;20043;-68
2022/08/07 01:09:32;;;;;;;8.38;5.30;;;;;;;;;;5088091;28;20466;-68
2022/08/07 01:11:59;;;;;;;6.60;5.70;;;;;;;;;;5088370;28;20047;-69
2022/08/07 01:14:25;;;;;;;8.23;4.90;;;;;;;;;;5088090;28;20641;-68
2022/08/07 01:16:51;;;;;;;7.38;5.60;;;;;;;;;;5088407;28;20037;-68
2022/08/07 01:19:18;;;;;;;7.57;5.75;;;;;;;;;;5074881;28;20047;-68
2022/08/07 01:21:45;;;;;;;7.72;5.65;;;;;;;;;;5087362;28;20390;-68
2022/08/07 01:24:12;;;;;;;9.80;6.10;;;;;;;;;;5088687;28;20396;-69
2022/08/07 01:26:38;;;;;;;7.93;5.15;;;;;;;;;;5088635;28;20036;-68
2022/08/07 01:29:04;;;;;;;10.25;6.00;;;;;;;;;;5087982;28;20040;-68
2022/08/07 01:31:31;;;;;;;9.65;6.57;;;;;;;;;;5105157;28;20109;-68
2022/08/07 01:33:58;;;;;;;8.02;6.10;;;;;;;;;;5091233;28;20210;-68
2022/08/07 01:36:28;;;;;;;7.28;5.70;;;;;;;;;;5089287;28;20198;-69
2022/08/07 01:38:54;;;;;;;8.98;6.45;;;;;;;;;;5085561;28;20089;-68
2022/08/07 01:41:21;;;;;;;7.82;5.57;;;;;;;;;;5090070;28;20464;-68
2022/08/07 01:43:48;;;;;;;8.80;6.63;;;;;;;;;;5068952;28;20486;-68
2022/08/07 01:46:15;;;;;;;10.35;6.43;;;;;;;;;;5090712;28;20035;-68
2022/08/07 01:48:42;;;;;;;9.45;5.70;;;;;;;;;;5091059;28;20036;-67
2022/08/07 01:51:10;;;;;;;12.60;6.30;;;;;;;;;;5089136;28;20123;-68
2022/08/07 01:53:38;;;;;;;8.43;6.50;;;;;;;;;;5074231;28;20040;-68
2022/08/07 01:56:10;;;;;;;10.55;6.30;;;;;;;;;;5107134;28;20052;-68
2022/08/07 01:58:38;;;;;;;9.30;6.18;;;;;;;;;;5079287;28;20035;-68
2022/08/07 02:01:08;;;;;;;9.07;5.70;;;;;;;;;;5091496;28;20040;-68
2022/08/07 02:03:38;;;;;;;8.85;6.05;;;;;;;;;;5086282;28;20047;-68
2022/08/07 02:06:07;;;;;;;10.05;6.20;;;;;;;;;;5090662;28;20046;-68
2022/08/07 02:08:36;;;;;;;10.02;5.85;;;;;;;;;;5092005;28;20623;-69
2022/08/07 02:11:04;;;;;;;10.60;6.25;;;;;;;;;;5091352;28;20048;-68
2022/08/07 02:13:31;;;;;;;9.10;6.28;;;;;;;;;;5091130;28;20040;-68
2022/08/07 02:15:59;;;;;;;10.00;6.05;;;;;;;;;;5091320;28;20040;-68
2022/08/07 02:18:27;;;;;;;9.68;6.25;;;;;;;;;;5091578;28;20594;-68
2022/08/07 02:20:54;;;;;;;7.65;5.55;;;;;;;;;;5090240;28;20046;-68
2022/08/07 02:23:22;;;;;;;8.07;5.40;;;;;;;;;;5072980;28;20046;-67
2022/08/07 02:25:48;;;;;;;8.90;5.60;;;;;;;;;;5089349;28;20346;-68
2022/08/07 02:28:15;;;;;;;10.52;6.25;;;;;;;;;;5088748;28;20449;-69
2022/08/07 02:30:42;;;;;;;10.13;5.97;;;;;;;;;;5083971;28;20032;-67
2022/08/07 02:33:08;;;;;;;9.15;6.40;;;;;;;;;;5101814;28;20460;-68
2022/08/07 02:35:35;;;;;;;9.50;5.95;;;;;;;;;;5084741;28;20032;-68
2022/08/07 02:38:03;;;;;;;10.75;6.38;;;;;;;;;;5077632;28;20036;-68
2022/08/07 02:40:30;;;;;;;10.13;6.07;;;;;;;;;;5083356;28;20518;-68
2022/08/07 02:42:57;;;;;;;8.18;5.97;;;;;;;;;;5083295;28;20048;-68
2022/08/07 02:45:25;;;;;;;7.60;5.78;;;;;;;;;;5082866;28;20076;-68
2022/08/07 02:47:51;;;;;;;12.80;6.10;;;;;;;;;;5081530;28;20036;-68
2022/08/07 02:50:17;;;;;;;9.82;6.03;;;;;;;;;;5074038;28;20033;-68
2022/08/07 02:52:54;;;;;;;7.30;5.85;;;;;;;;;;5101460;28;20390;-67
2022/08/07 02:55:25;;;;;;;9.48;6.45;;;;;;;;;;5084071;28;20532;-68
2022/08/07 02:57:52;;;;;;;8.68;6.00;;;;;;;;;;5088105;28;20050;-67
2022/08/07 03:00:18;;;;;;;11.00;6.32;;;;;;;;;;5075640;28;20068;-67
2022/08/07 03:02:46;;;;;;;8.27;6.15;;;;;;;;;;5074869;28;20043;-68
2022/08/07 03:05:14;;;;;;;9.73;6.88;;;;;;;;;;5084623;28;20044;-68
2022/08/07 03:07:40;;;;;;;10.02;6.28;;;;;;;;;;5081101;28;20284;-68
2022/08/07 03:10:07;;;;;;;9.45;6.10;;;;;;;;;;5077817;28;20058;-68
2022/08/07 03:12:34;;;;;;;9.82;6.68;;;;;;;;;;5097674;28;20036;-68
2022/08/07 03:15:00;;;;;;;10.55;6.47;;;;;;;;;;5090220;28;20043;-68
2022/08/07 03:17:27;;;;;;;9.55;6.68;;;;;;;;;;5090555;28;20032;-68
2022/08/07 03:19:54;;;;;;;8.63;6.18;;;;;;;;;;5089700;28;20040;-68
2022/08/07 03:22:21;;;;;;;8.90;6.47;;;;;;;;;;5088463;28;20093;-68
2022/08/07 03:24:47;;;;;;;8.00;5.50;;;;;;;;;;5089147;28;20141;-68
2022/08/07 03:27:14;;;;;;;9.80;6.47;;;;;;;;;;5090355;28;20394;-68
2022/08/07 03:29:44;;;;;;;8.55;6.18;;;;;;;;;;5104525;28;20076;-68
2022/08/07 03:32:11;;;;;;;8.60;6.18;;;;;;;;;;5089823;28;20123;-67
2022/08/07 03:34:38;;;;;;;8.23;5.82;;;;;;;;;;5094647;28;20051;-67
2022/08/07 03:37:05;;;;;;;10.30;6.50;;;;;;;;;;5101733;28;20056;-68
2022/08/07 03:39:33;;;;;;;9.70;6.18;;;;;;;;;;5090295;28;20444;-67
2022/08/07 03:42:00;;;;;;;9.10;4.97;;;;;;;;;;5089650;28;20448;-67
2022/08/07 03:44:27;;;;;;;6.40;4.93;;;;;;;;;;5087481;28;20040;-68
2022/08/07 03:46:53;;;;;;;8.13;6.18;;;;;;;;;;5071494;28;20035;-68
2022/08/07 03:49:19;;;;;;;10.65;6.03;;;;;;;;;;5086640;28;20109;-67
2022/08/07 03:51:46;;;;;;;8.60;6.38;;;;;;;;;;5088120;28;20059;-68
2022/08/07 03:54:12;;;;;;;8.60;6.07;;;;;;;;;;5089778;28;20514;-68
2022/08/07 03:56:39;;;;;;;9.75;7.10;;;;;;;;;;5089483;28;20040;-68
2022/08/07 03:59:06;;;;;;;10.40;5.90;;;;;;;;;;5088463;28;20044;-67
2022/08/07 04:01:33;;;;;;;7.43;5.38;;;;;;;;;;5089303;28;20071;-68
2022/08/07 04:03:59;;;;;;;12.40;6.40;;;;;;;;;;5105162;28;20050;-68
2022/08/07 04:06:26;;;;;;;9.32;6.25;;;;;;;;;;5086919;28;20067;-68
2022/08/07 04:08:52;;;;;;;11.20;6.00;;;;;;;;;;5089609;28;20039;-68
2022/08/07 04:11:18;;;;;;;10.38;6.65;;;;;;;;;;5089254;28;20447;-68
2022/08/07 04:13:45;;;;;;;15.57;7.85;;;;;;;;;;5089224;28;20103;-68
2022/08/07 04:16:12;;;;;;;9.85;5.97;;;;;;;;;;5088970;28;20043;-68
2022/08/07 04:18:38;;;;;;;8.30;5.70;;;;;;;;;;5088063;28;20473;-68
2022/08/07 04:21:04;;;;;;;11.07;6.97;;;;;;;;;;5103330;28;20048;-68
2022/08/07 04:23:31;;;;;;;8.27;5.57;;;;;;;;;;5090094;28;20098;-68
2022/08/07 04:25:58;;;;;;;10.52;6.85;;;;;;;;;;5090300;28;20127;-68
2022/08/07 04:28:24;;;;;;;7.65;5.50;;;;;;;;;;5106275;28;20069;-68
2022/08/07 04:30:50;;;;;;;8.20;6.13;;;;;;;;;;5089250;28;20036;-68
2022/08/07 04:33:17;;;;;;;8.15;5.30;;;;;;;;;;5083093;28;20442;-67
2022/08/07 04:35:47;;;;;;;8.77;5.82;;;;;;;;;;5087601;28;20079;-67
2022/08/07 04:38:14;;;;;;;8.07;5.60;;;;;;;;;;5089998;28;20040;-68
2022/08/07 04:40:41;;;;;;;9.48;6.13;;;;;;;;;;5083388;28;20063;-68
2022/08/07 04:43:08;;;;;;;7.22;5.78;;;;;;;;;;5104562;28;20048;-68
2022/08/07 04:45:40;;;;;;;8.85;5.75;;;;;;;;;;5089313;28;20036;-68
2022/08/07 04:48:18;;;;;;;11.75;5.22;;;;;;;;;;5089231;28;20493;-68
2022/08/07 04:50:48;;;;;;;8.43;6.30;;;;;;;;;;5088259;28;20538;-68
2022/08/07 04:53:23;;;;;;;7.55;5.43;;;;;;;;;;5089503;28;20290;-68
2022/08/07 04:56:01;;;;;;;10.52;5.63;;;;;;;;;;5087091;28;20094;-68
2022/08/07 04:58:39;;;;;;;9.50;6.18;;;;;;;;;;5065672;28;20043;-68
2022/08/07 05:01:15;;;;;;;8.82;5.00;;;;;;;;;;5088294;28;20389;-68
2022/08/07 05:03:45;;;;;;;9.10;5.57;;;;;;;;;;5089628;28;20050;-68
2022/08/07 05:06:16;;;;;;;10.87;6.03;;;;;;;;;;5086179;28;20041;-67
2022/08/07 05:08:49;;;;;;;8.90;5.60;;;;;;;;;;5093455;28;20740;-68
2022/08/07 05:11:35;;;;;;;10.35;5.82;;;;;;;;;;5092853;28;20404;-68
2022/08/07 05:14:05;;;;;;;7.75;5.30;;;;;;;;;;5103775;28;20090;-67
2022/08/07 05:16:32;;;;;;;9.73;6.38;;;;;;;;;;5092345;28;20104;-68
2022/08/07 05:19:01;;;;;;;9.32;6.25;;;;;;;;;;5092491;28;20036;-68
2022/08/07 05:21:28;;;;;;;10.15;6.03;;;;;;;;;;5091303;28;20067;-68
2022/08/07 05:23:59;;;;;;;10.32;6.55;;;;;;;;;;5091448;28;20157;-67
2022/08/07 05:26:27;;;;;;;8.77;5.40;;;;;;;;;;5087926;28;20044;-67
2022/08/07 05:28:54;;;;;;;9.07;6.45;;;;;;;;;;5103519;28;20671;-68
2022/08/07 05:31:21;;;;;;;9.60;5.55;;;;;;;;;;5092284;28;20457;-68
2022/08/07 05:33:49;;;;;;;11.60;5.63;;;;;;;;;;5090731;28;20040;-67
2022/08/07 05:36:15;;;;;;;9.55;5.55;;;;;;;;;;5086028;28;20085;-68
2022/08/07 05:38:42;;;;;;;9.15;6.07;;;;;;;;;;5087191;28;20051;-68
2022/08/07 05:41:09;;;;;;;7.95;5.32;;;;;;;;;;5086152;28;20048;-68
2022/08/07 05:43:35;;;;;;;8.45;5.40;;;;;;;;;;5088888;28;20063;-67
2022/08/07 05:46:02;;;;;;;10.25;5.57;;;;;;;;;;5085104;28;20036;-67
2022/08/07 05:48:29;;;;;;;8.13;4.63;;;;;;;;;;5086917;28;20040;-68
2022/08/07 05:50:59;;;;;;;7.93;5.15;;;;;;;;;;5086896;28;20051;-67
2022/08/07 05:53:26;;;;;;;7.10;4.80;;;;;;;;;;5078694;28;20044;-67
2022/08/07 05:55:53;;;;;;;6.95;5.05;;;;;;;;;;5083864;28;20059;-68
2022/08/07 05:58:21;;;;;;;8.10;4.95;;;;;;;;;;5091138;28;20044;-68
2022/08/07 06:00:48;;;;;;;6.40;4.75;;;;;;;;;;5084851;28;20088;-68
2022/08/07 06:03:16;;;;;;;8.15;5.10;;;;;;;;;;5083420;28;20040;-69
2022/08/07 06:05:42;;;;;;;8.65;5.93;;;;;;;;;;5078664;28;20123;-67
2022/08/07 06:08:11;;;;;;;6.90;4.35;;;;;;;;;;5079720;28;20115;-68
2022/08/07 06:10:38;;;;;;;5.75;4.13;;;;;;;;;;5089346;28;20269;-68
2022/08/07 06:13:04;;;;;;;8.63;4.80;;;;;;;;;;5088742;28;20515;-68
2022/08/07 06:15:30;;;;;;;8.18;4.68;;;;;;;;;;5090965;28;20040;-68
2022/08/07 06:17:58;;;;;;;6.60;4.65;;;;;;;;;;5098205;28;20535;-67
2022/08/07 06:20:24;;;;;;;6.63;4.10;;;;;;;;;;5090100;28;20289;-68
2022/08/07 06:22:51;;;;;;;7.18;4.68;;;;;;;;;;5107053;28;20040;-68
2022/08/07 06:25:18;;;;;;;7.80;4.80;;;;;;;;;;5091651;28;20559;-68
2022/08/07 06:27:44;;;;;;;9.10;4.70;;;;;;;;;;5106922;28;20077;-68
2022/08/07 06:30:11;;;;;;;5.55;3.72;;;;;;;;;;5090891;28;20036;-68
2022/08/07 06:32:37;;;;;;;6.88;4.00;;;;;;;;;;5091490;28;20120;-68
2022/08/07 06:35:03;;;;;;;7.10;4.22;;;;;;;;;;5088714;28;20441;-68
2022/08/07 06:37:29;;;;;;;7.07;3.85;;;;;;;;;;5084922;28;20040;-68
2022/08/07 06:39:55;;;;;;;8.60;3.90;;;;;;;;;;5090094;28;20052;-68
2022/08/07 06:42:25;;;;;;;6.15;4.20;;;;;;;;;;5078440;28;20375;-68
2022/08/07 06:44:52;;;;;;;8.00;3.97;;;;;;;;;;5096067;28;20044;-68
2022/08/07 06:47:18;;;;;;;6.15;3.55;;;;;;;;;;5086501;28;20040;-68
2022/08/07 06:49:45;;;;;;;7.28;4.22;;;;;;;;;;5090516;28;20024;-68
2022/08/07 06:52:11;;;;;;;5.72;3.72;;;;;;;;;;5088460;28;20051;-68
2022/08/07 06:54:38;;;;;;;6.18;4.43;;;;;;;;;;5090782;28;20093;-68
2022/08/07 06:57:06;;;;;;;7.13;4.45;;;;;;;;;;5105987;28;20058;-69
2022/08/07 06:59:36;;;;;;;7.90;3.50;;;;;;;;;;5090768;28;20044;-68
2022/08/07 07:02:03;;;;;;;5.03;3.78;;;;;;;;;;5106091;28;20119;-68
2022/08/07 07:04:30;;;;;;;5.43;3.47;;;;;;;;;;5072403;28;20036;-68
2022/08/07 07:06:56;;;;;;;5.07;3.13;;;;;;;;;;5088420;28;20126;-67
2022/08/07 07:09:24;;;;;;;5.95;3.60;;;;;;;;;;5090714;28;20043;-67
2022/08/07 07:11:50;;;;;;;4.93;3.30;;;;;;;;;;5088690;28;20065;-68
2022/08/07 07:14:18;;;;;;;3.97;2.45;;;;;;;;;;5089155;28;20048;-68
2022/08/07 07:16:45;;;;;;;5.45;3.10;;;;;;;;;;5090264;28;20527;-68
2022/08/07 07:19:12;;;;;;;4.60;3.05;;;;;;;;;;5090538;28;20414;-68
2022/08/07 07:21:40;;;;;;;5.50;3.30;;;;;;;;;;5089158;28;20165;-68
2022/08/07 07:24:09;;;;;;;4.97;3.55;;;;;;;;;;5089218;28;20485;-68
2022/08/07 07:26:36;;;;;;;5.78;3.60;;;;;;;;;;5083934;28;20039;-68
2022/08/07 07:29:05;;;;;;;6.32;3.72;;;;;;;;;;5090027;28;20075;-68
2022/08/07 07:31:33;;;;;;;7.47;3.50;;;;;;;;;;5090083;28;20209;-68
2022/08/07 07:34:03;;;;;;;6.47;3.92;;;;;;;;;;5088763;28;20044;-68
2022/08/07 07:36:29;;;;;;;4.93;3.63;;;;;;;;;;5085841;28;20460;-68
2022/08/07 07:38:55;;;;;;;5.20;3.55;;;;;;;;;;5090259;28;20451;-67
2022/08/07 07:41:22;;;;;;;5.10;3.25;;;;;;;;;;5088569;28;20132;-68
2022/08/07 07:43:50;;;;;;;6.40;4.05;;;;;;;;;;5105681;28;20092;-69
2022/08/07 07:46:17;;;;;;;10.27;4.30;;;;;;;;;;5092069;28;20111;-68
2022/08/07 07:48:46;;;;;;;6.10;3.88;;;;;;;;;;5087388;28;20048;-68
2022/08/07 07:51:12;;;;;;;6.20;4.53;;;;;;;;;;5076938;28;20047;-68
2022/08/07 07:53:41;;;;;;;5.88;4.25;;;;;;;;;;5105386;28;20043;-68
2022/08/07 07:56:07;;;;;;;5.63;3.83;;;;;;;;;;5103845;28;20060;-67
2022/08/07 07:58:34;;;;;;;8.02;4.97;;;;;;;;;;5090068;28;20040;-68
2022/08/07 08:01:01;;;;;;;13.25;4.70;;;;;;;;;;5087864;28;20040;-68
2022/08/07 08:03:28;;;;;;;6.43;3.97;;;;;;;;;;5088326;28;20036;-68
2022/08/07 08:05:54;;;;;;;6.72;4.00;;;;;;;;;;5088144;28;20072;-69
2022/08/07 08:08:22;;;;;;;5.43;3.78;;;;;;;;;;5105620;28;20032;-68
2022/08/07 08:10:48;;;;;;;5.63;3.38;;;;;;;;;;5096952;28;20271;-68
2022/08/07 08:13:15;;;;;;;6.88;3.25;;;;;;;;;;5085522;28;20123;-69
2022/08/07 08:15:41;;;;;;;5.35;3.72;;;;;;;;;;5085564;28;20070;-68
2022/08/07 08:18:09;;;;;;;5.20;3.50;;;;;;;;;;5078920;28;20036;-68
2022/08/07 08:20:38;;;;;;;7.47;4.72;;;;;;;;;;5088150;28;20050;-68
2022/08/07 08:28:40;;;;;;;6.72;3.72;;;;;;;;;;5074136;28;20044;-68
2022/08/07 08:31:07;;;;;;;7.50;4.32;;;;;;;;;;5087458;28;20067;-69
2022/08/07 08:33:36;;;;;;;6.45;4.13;;;;;;;;;;5081931;28;20044;-68
2022/08/07 08:36:03;;;;;;;5.10;3.83;;;;;;;;;;5086382;28;20040;-69
2022/08/07 08:38:35;;;;;;;7.10;3.70;;;;;;;;;;5087934;28;20058;-68
2022/08/07 08:41:12;;;;;;;6.22;3.97;;;;;;;;;;5091983;28;20040;-68
2022/08/07 08:43:42;;;;;;;7.32;3.88;;;;;;;;;;5081466;28;20040;-68
2022/08/07 08:46:12;;;;;;;8.50;4.47;;;;;;;;;;5091612;28;20032;-69
2022/08/07 08:48:59;;;;;;;6.28;4.57;;;;;;;;;;5092497;28;20436;-68
2022/08/07 08:51:31;;;;;;;6.18;3.78;;;;;;;;;;5091982;28;20032;-68
2022/08/07 08:54:15;;;;;;;5.23;3.20;;;;;;;;;;5092175;28;20057;-69
2022/08/07 08:56:44;;;;;;;4.57;3.58;;;;;;;;;;5094304;28;20083;-68
2022/08/07 08:59:24;;;;;;;5.97;3.65;;;;;;;;;;5093145;28;20048;-69
2022/08/07 09:02:07;;;;;;;7.57;4.80;;;;;;;;;;5083163;28;20454;-68
2022/08/07 09:04:43;;;;;;;8.60;3.45;;;;;;;;;;5089786;28;20047;-68
2022/08/07 09:07:23;;;;;;;5.63;3.60;;;;;;;;;;5091620;28;20513;-69
2022/08/07 09:09:58;;;;;;;6.40;3.58;;;;;;;;;;5092647;28;20048;-69
2022/08/07 09:12:30;;;;;;;4.72;2.85;;;;;;;;;;5092632;28;20058;-68
2022/08/07 09:15:06;;;;;;;5.97;3.72;;;;;;;;;;5091300;28;20040;-69
2022/08/07 09:17:37;;;;;;;6.35;3.55;;;;;;;;;;5091625;28;20417;-68
2022/08/07 09:20:09;;;;;;;7.60;4.18;;;;;;;;;;5095071;28;20063;-69
2022/08/07 09:22:54;;;;;;;4.65;2.67;;;;;;;;;;5091763;28;20028;-68
2022/08/07 09:25:24;;;;;;;4.80;3.38;;;;;;;;;;5086310;28;20047;-68
2022/08/07 09:27:56;;;;;;;4.43;2.85;;;;;;;;;;5090169;28;20054;-70
2022/08/07 09:30:24;;;;;;;6.13;3.28;;;;;;;;;;5090698;28;20047;-68
2022/08/07 09:33:00;;;;;;;6.30;3.10;;;;;;;;;;5092673;28;20048;-68
2022/08/07 09:35:35;;;;;;;4.82;3.20;;;;;;;;;;5091544;28;20040;-69
2022/08/07 09:38:10;;;;;;;3.83;2.70;;;;;;;;;;5088358;28;20040;-68
2022/08/07 09:40:39;;;;;;;4.78;2.90;;;;;;;;;;5090492;28;20040;-69
2022/08/07 09:43:12;;;;;;;5.07;3.10;;;;;;;;;;5064393;28;20052;-68
2022/08/07 09:45:57;;;;;;;9.23;3.63;;;;;;;;;;5090663;28;20423;-69
2022/08/07 09:48:43;;;;;;;5.00;2.85;;;;;;;;;;5090797;28;20516;-69
2022/08/07 09:51:28;;;;;;;4.03;2.25;;;;;;;;;;5088660;28;20047;-68
2022/08/07 09:53:57;;;;;;;4.80;3.17;;;;;;;;;;5108186;28;20051;-69
2022/08/07 09:56:42;;;;;;;5.38;2.65;;;;;;;;;;5091644;28;20420;-68
2022/08/07 09:59:27;;;;;;;4.20;2.63;;;;;;;;;;5091744;28;20050;-68
2022/08/07 10:02:12;;;;;;;4.22;2.78;;;;;;;;;;5093908;28;20074;-69
2022/08/07 10:04:56;;;;;;;3.53;2.03;;;;;;;;;;5087121;28;20036;-69
2022/08/07 10:07:33;;;;;;;3.72;2.90;;;;;;;;;;5087050;28;20082;-69
2022/08/07 10:10:18;;;;;;;3.22;2.47;;;;;;;;;;5091607;28;20040;-69
2022/08/07 10:12:53;;;;;;;3.92;2.80;;;;;;;;;;5082339;28;20138;-70
2022/08/07 10:15:49;;;;;;;7.35;3.13;;;;;;;;;;5089820;28;20052;-68
2022/08/07 10:18:33;;;;;;;4.35;2.85;;;;;;;;;;5078531;28;20059;-69
2022/08/07 10:21:07;;;;;;;7.95;3.78;;;;;;;;;;5082990;28;20044;-69
2022/08/07 10:23:52;;;;;;;4.65;3.22;;;;;;;;;;5091395;28;20525;-69
2022/08/07 10:26:43;;;;;;;8.43;3.40;;;;;;;;;;5078381;28;20286;-69
2022/08/07 10:29:24;;;;;;;4.50;2.53;;;;;;;;;;5104033;28;20043;-69
2022/08/07 10:32:20;;;;;;;5.05;2.90;;;;;;;;;;5070656;28;20040;-69
2022/08/07 10:35:06;;;;;;;7.35;3.10;;;;;;;;;;5097115;28;20044;-69
2022/08/07 10:37:52;;;;;;;5.13;2.80;;;;;;;;;;5085218;28;20150;-69
2022/08/07 10:40:41;;;;;;;4.57;3.42;;;;;;;;;;5084490;28;20055;-69
2022/08/07 10:43:27;;;;;;;4.80;2.97;;;;;;;;;;5054939;28;20055;-69
2022/08/07 10:46:29;;;;;;;5.50;3.00;;;;;;;;;;5078357;28;20445;-69
2022/08/07 10:49:14;;;;;;;4.10;2.47;;;;;;;;;;5040582;28;20080;-69
2022/08/07 10:51:56;;;;;;;6.47;3.08;;;;;;;;;;5078621;28;20044;-69
2022/08/07 10:54:32;;;;;;;4.38;2.72;;;;;;;;;;5088701;28;20058;-69
2022/08/07 10:57:13;;;;;;;7.22;3.53;;;;;;;;;;5094950;28;20182;-69
2022/08/07 10:59:45;;;;;;;5.18;3.60;;;;;;;;;;5097785;28;20043;-69
2022/08/07 11:02:17;;;;;;;5.22;2.65;;;;;;;;;;5099460;28;20048;-69
2022/08/07 11:04:58;;;;;;;5.35;2.95;;;;;;;;;;5089031;28;20513;-69
2022/08/07 11:07:35;;;;;;;5.10;2.95;;;;;;;;;;5103835;28;20543;-69
2022/08/07 11:10:04;;;;;;;6.07;2.75;;;;;;;;;;5098202;28;20397;-69
2022/08/07 11:12:36;;;;;;;6.10;2.58;;;;;;;;;;5084787;28;20031;-70
2022/08/07 11:15:07;;;;;;;5.25;2.75;;;;;;;;;;5087244;28;20118;-69
2022/08/07 11:17:48;;;;;;;4.70;2.78;;;;;;;;;;5105834;28;20044;-68
2022/08/07 11:20:20;;;;;;;4.35;2.63;;;;;;;;;;5099211;28;20565;-69
2022/08/07 11:23:06;;;;;;;3.40;2.30;;;;;;;;;;5104194;28;20062;-69
2022/08/07 11:25:35;;;;;;;4.10;2.25;;;;;;;;;;5066936;28;20795;-69
2022/08/07 11:28:04;;;;;;;4.30;2.22;;;;;;;;;;5090656;28;20125;-70
2022/08/07 11:30:38;;;;;;;4.22;2.10;;;;;;;;;;5088186;28;20040;-70
2022/08/07 11:33:08;;;;;;;2.95;1.90;;;;;;;;;;5105567;28;20044;-70
2022/08/07 11:35:45;;;;;;;2.92;2.08;;;;;;;;;;5087120;28;20055;-70
2022/08/07 11:38:32;;;;;;;5.15;2.05;;;;;;;;;;5090471;28;20082;-70
2022/08/07 11:40:59;;;;;;;7.10;2.60;;;;;;;;;;5101209;28;21795;-70
2022/08/07 11:43:31;;;;;;;2.55;1.90;;;;;;;;;;5081704;28;20040;-69
2022/08/07 11:46:09;;;;;;;4.32;2.13;;;;;;;;;;5089243;28;20042;-70
2022/08/07 11:49:00;;;;;;;3.83;2.30;;;;;;;;;;5086778;28;20435;-69
2022/08/07 11:51:47;;;;;;;3.15;2.17;;;;;;;;;;5087218;28;20054;-69
2022/08/07 11:54:32;;;;;;;2.63;1.42;;;;;;;;;;5082448;28;20044;-69
2022/08/07 11:57:01;;;;;;;3.10;1.80;;;;;;;;;;5079636;28;20060;-70
2022/08/07 11:59:40;;;;;;;2.63;1.95;;;;;;;;;;5088559;28;20557;-70
2022/08/07 12:02:25;;;;;;;4.70;1.63;;;;;;;;;;5087831;28;20043;-71
2022/08/07 12:05:03;;;;;;;4.20;1.40;;;;;;;;;;5104746;28;20035;-70
2022/08/07 12:07:33;;;;;;;2.95;1.60;;;;;;;;;;5086564;28;20181;-70
2022/08/07 12:10:02;;;;;;;3.70;1.48;;;;;;;;;;5089586;28;20490;-70
2022/08/07 12:12:43;;;;;;;3.05;1.88;;;;;;;;;;5089050;28;20036;-70
2022/08/07 12:15:15;;;;;;;2.13;1.42;;;;;;;;;;5087540;28;20040;-69
2022/08/07 12:17:45;;;;;;;6.90;1.63;;;;;;;;;;5097577;28;20488;-70
2022/08/07 12:20:20;;;;;;;2.58;1.70;;;;;;;;;;5086941;28;20560;-70
2022/08/07 12:22:55;;;;;;;2.17;1.33;;;;;;;;;;5082838;28;20044;-70
2022/08/07 12:28:17;;;;;;;3.03;1.52;;;;;;;;;;5078006;28;20512;-70
2022/08/07 12:30:45;;;;;;;5.05;1.40;;;;;;;;;;5087814;28;20548;-70
2022/08/07 12:33:17;;;;;;;2.65;1.50;;;;;;;;;;5088226;28;20062;-71
2022/08/07 12:35:44;;;;;;;2.35;1.40;;;;;;;;;;5091046;28;20584;-70
2022/08/07 12:38:12;;;;;;;1.98;1.30;;;;;;;;;;5084508;28;20485;-70
2022/08/07 12:40:39;;;;;;;3.08;1.70;;;;;;;;;;5087763;28;20066;-70
2022/08/07 12:43:07;;;;;;;2.03;1.40;;;;;;;;;;5086261;28;20119;-70
2022/08/07 12:45:38;;;;;;;1.83;1.63;;;;;;;;;;5097036;28;20075;-70
2022/08/07 12:48:11;;;;;;;2.78;1.58;;;;;;;;;;5087714;28;20074;-70
2022/08/07 12:50:47;;;;;;;3.13;1.40;;;;;;;;;;5095126;28;20029;-70
2022/08/07 12:53:31;;;;;;;4.15;1.40;;;;;;;;;;5086572;28;20036;-70
2022/08/07 12:56:02;;;;;;;2.45;1.17;;;;;;;;;;5088639;28;20048;-70
2022/08/07 12:58:33;;;;;;;3.30;1.20;;;;;;;;;;5084816;28;20081;-71
2022/08/07 13:01:07;;;;;;;2.75;1.55;;;;;;;;;;5087226;28;20126;-70
2022/08/07 13:03:54;;;;;;;2.55;1.65;;;;;;;;;;5080582;28;20044;-70
2022/08/07 13:06:26;;;;;;;4.38;1.70;;;;;;;;;;5102350;28;20032;-70
2022/08/07 13:09:01;;;;;;;1.63;1.40;;;;;;;;;;5088077;28;20517;-70
2022/08/07 13:11:42;;;;;;;4.70;1.80;;;;;;;;;;5088305;28;20115;-70
2022/08/07 13:14:11;;;;;;;2.78;1.92;;;;;;;;;;5101444;28;20051;-70
2022/08/07 13:16:51;;;;;;;4.95;3.00;;;;;;;;;;5070069;28;20044;-70
2022/08/07 13:19:23;;;;;;;4.53;3.10;;;;;;;;;;5076543;28;20505;-70
2022/08/07 13:21:56;;;;;;;6.80;2.80;;;;;;;;;;5087311;28;20052;-70
2022/08/07 13:24:29;;;;;;;5.78;2.88;;;;;;;;;;5086136;28;20037;-70
2022/08/07 13:27:09;;;;;;;6.63;3.15;;;;;;;;;;5086487;28;20032;-69
2022/08/07 13:29:38;;;;;;;6.40;2.88;;;;;;;;;;5067394;28;20515;-70
2022/08/07 13:32:09;;;;;;;3.78;2.92;;;;;;;;;;5092357;28;20077;-70
2022/08/07 13:34:47;;;;;;;5.25;2.40;;;;;;;;;;5091281;28;20115;-70
2022/08/07 13:37:27;;;;;;;4.43;2.90;;;;;;;;;;5085374;28;20052;-70
2022/08/07 13:40:02;;;;;;;6.28;2.80;;;;;;;;;;5087798;28;20405;-70
2022/08/07 13:42:30;;;;;;;5.57;3.13;;;;;;;;;;5090761;28;20389;-70
2022/08/07 13:44:57;;;;;;;8.35;2.80;;;;;;;;;;5098948;28;20526;-70
2022/08/07 13:47:26;;;;;;;4.60;2.72;;;;;;;;;;5064158;28;20032;-70
2022/08/07 13:49:54;;;;;;;5.07;3.13;;;;;;;;;;5090158;28;20040;-70
2022/08/07 13:52:20;;;;;;;4.43;2.53;;;;;;;;;;5085923;28;20122;-70
2022/08/07 13:54:47;;;;;;;4.93;2.53;;;;;;;;;;5073891;28;20036;-70
2022/08/07 13:57:17;;;;;;;7.50;2.75;;;;;;;;;;5107987;28;20443;-70
2022/08/07 13:59:47;;;;;;;4.90;2.78;;;;;;;;;;5095328;28;20031;-70
2022/08/07 14:02:19;;;;;;;5.65;2.97;;;;;;;;;;5097577;28;20048;-70
2022/08/07 14:04:45;;;;;;;10.18;3.95;;;;;;;;;;5107044;28;20514;-70
2022/08/07 14:07:11;;;;;;;3.78;2.15;;;;;;;;;;5089199;28;20517;-70
2022/08/07 14:09:40;;;;;;;5.03;3.13;;;;;;;;;;5107300;28;20071;-70
2022/08/07 14:12:08;;;;;;;5.60;3.13;;;;;;;;;;5091164;28;20063;-70
2022/08/07 14:14:42;;;;;;;5.55;3.13;;;;;;;;;;5090532;28;20061;-70
2022/08/07 14:17:10;;;;;;;3.33;2.67;;;;;;;;;;5086279;28;20127;-70
2022/08/07 14:19:37;;;;;;;5.45;2.33;;;;;;;;;;5073880;28;20046;-70
2022/08/07 14:22:04;;;;;;;4.57;2.75;;;;;;;;;;5089772;28;20138;-70
2022/08/07 14:24:40;;;;;;;5.35;2.92;;;;;;;;;;5073306;28;20165;-70
2022/08/07 14:27:11;;;;;;;3.83;2.53;;;;;;;;;;5093457;28;20558;-70
2022/08/07 14:29:40;;;;;;;5.55;3.22;;;;;;;;;;5090365;28;20089;-70
2022/08/07 14:32:07;;;;;;;5.13;3.35;;;;;;;;;;5089622;28;20131;-70
2022/08/07 14:34:34;;;;;;;4.68;3.05;;;;;;;;;;5089947;28;20062;-70
2022/08/07 14:37:01;;;;;;;4.90;3.20;;;;;;;;;;5090040;28;20486;-70
2022/08/07 14:39:27;;;;;;;2.80;2.25;;;;;;;;;;5105966;28;20084;-70
2022/08/07 14:41:54;;;;;;;4.43;2.85;;;;;;;;;;5073126;28;20036;-70
2022/08/07 14:44:21;;;;;;;5.72;3.38;;;;;;;;;;5073033;28;20070;-70
2022/08/07 14:46:48;;;;;;;6.78;3.40;;;;;;;;;;5102217;28;20432;-70
2022/08/07 14:49:15;;;;;;;5.75;3.00;;;;;;;;;;5090637;28;20513;-70
2022/08/07 14:51:42;;;;;;;5.68;3.80;;;;;;;;;;5089529;28;20032;-69
2022/08/07 14:54:09;;;;;;;7.35;3.30;;;;;;;;;;5089832;28;20051;-70
2022/08/07 14:56:39;;;;;;;5.45;2.95;;;;;;;;;;5090830;28;20055;-70
2022/08/07 14:59:08;;;;;;;5.05;3.25;;;;;;;;;;5091281;28;20062;-70
2022/08/07 15:01:35;;;;;;;5.32;2.70;;;;;;;;;;5089298;28;20481;-70
2022/08/07 15:04:03;;;;;;;3.90;2.78;;;;;;;;;;5093764;28;20040;-70
2022/08/07 15:06:32;;;;;;;6.13;3.15;;;;;;;;;;5086691;28;20040;-70
2022/08/07 15:09:20;;;;;;;4.47;3.33;;;;;;;;;;5091020;28;20039;-70